createdAt,value
2023-01-23T00:01:32.539Z,10.77
2023-01-23T00:04:00.668Z,10.13
2023-01-23T00:06:28.353Z,10.68
2023-01-23T00:08:58.949Z,10.65
2023-01-23T00:11:28.601Z,10.60
2023-01-23T00:13:57.647Z,10.20
2023-01-23T00:16:27.467Z,9.88
2023-01-23T00:18:54.398Z,10.02
2023-01-23T00:21:23.517Z,10.65
2023-01-23T00:24:01.820Z,11.10
2023-01-23T00:26:30.497Z,10.43
2023-01-23T00:28:57.571Z,10.82
2023-01-23T00:31:30.709Z,11.65
2023-01-23T00:34:03.502Z,11.52
2023-01-23T00:36:36.437Z,11.07
2023-01-23T00:39:06.785Z,11.20
2023-01-23T00:41:33.970Z,11.10
2023-01-23T00:44:00.811Z,11.55
2023-01-23T00:46:27.654Z,11.55
2023-01-23T00:48:56.893Z,11.98
2023-01-23T00:51:24.402Z,12.25
2023-01-23T00:53:51.341Z,12.00
2023-01-23T00:56:18.237Z,12.15
2023-01-23T00:58:45.509Z,11.63
2023-01-23T01:01:14.060Z,12.05
2023-01-23T01:03:41.895Z,12.88
2023-01-23T01:06:09.708Z,12.35
2023-01-23T01:08:37.100Z,12.27
2023-01-23T01:11:04.575Z,12.52
2023-01-23T01:13:31.387Z,11.93
2023-01-23T01:16:01.825Z,12.27
2023-01-23T01:18:29.597Z,11.70
2023-01-23T01:20:57.605Z,11.75
2023-01-23T01:23:24.542Z,12.75
2023-01-23T01:25:51.967Z,11.82
2023-01-23T01:28:18.855Z,12.35
2023-01-23T01:30:47.883Z,12.13
2023-01-23T01:33:14.817Z,12.63
2023-01-23T01:35:42.277Z,12.95
2023-01-23T01:38:09.514Z,12.60
2023-01-23T01:40:37.223Z,13.00
2023-01-23T01:43:07.511Z,13.75
2023-01-23T01:46:03.922Z,13.02
2023-01-23T01:48:36.328Z,13.05
2023-01-23T01:51:09.651Z,12.23
2023-01-23T01:53:37.887Z,12.70
2023-01-23T01:56:06.086Z,14.40
2023-01-23T01:58:33.925Z,13.30
2023-01-23T02:01:00.923Z,13.93
2023-01-23T02:03:28.344Z,12.57
2023-01-23T02:05:55.619Z,14.45
2023-01-23T02:08:32.863Z,13.75
2023-01-23T02:11:03.535Z,14.25
2023-01-23T02:13:36.078Z,13.88
2023-01-23T02:16:12.427Z,14.95
2023-01-23T02:18:45.682Z,13.23
2023-01-23T02:21:15.340Z,14.73
2023-01-23T02:23:55.419Z,14.30
2023-01-23T02:26:36.709Z,14.95
2023-01-23T02:29:05.893Z,15.65
2023-01-23T02:31:44.278Z,15.73
2023-01-23T02:34:13.826Z,16.23
2023-01-23T02:36:44.860Z,15.02
2023-01-23T02:39:17.907Z,15.93
2023-01-23T02:41:50.803Z,15.57
2023-01-23T02:44:29.015Z,15.48
2023-01-23T02:47:02.130Z,16.40
2023-01-23T02:49:30.023Z,16.63
2023-01-23T02:51:57.570Z,17.02
2023-01-23T02:54:25.041Z,16.48
2023-01-23T02:56:52.891Z,15.98
2023-01-23T02:59:43.128Z,17.20
2023-01-23T03:02:10.428Z,16.83
2023-01-23T03:04:37.482Z,16.52
2023-01-23T03:07:04.495Z,16.98
2023-01-23T03:09:31.273Z,16.75
2023-01-23T03:11:58.768Z,15.93
2023-01-23T03:14:26.474Z,17.13
2023-01-23T03:16:55.146Z,16.55
2023-01-23T03:19:28.579Z,16.30
2023-01-23T03:21:55.456Z,15.90
2023-01-23T03:24:22.381Z,15.52
2023-01-23T03:26:51.017Z,17.10
2023-01-23T03:29:41.910Z,16.35
2023-01-23T03:32:11.333Z,15.38
2023-01-23T03:34:41.917Z,16.35
2023-01-23T03:37:09.832Z,15.45
2023-01-23T03:39:56.880Z,15.45
2023-01-23T03:42:25.066Z,16.02
2023-01-23T03:44:53.515Z,14.75
2023-01-23T03:47:28.920Z,16.05
2023-01-23T03:49:56.198Z,16.92
2023-01-23T03:52:24.406Z,16.10
2023-01-23T03:54:51.634Z,16.00
2023-01-23T03:57:19.383Z,16.05
2023-01-23T04:00:05.692Z,15.85
2023-01-23T04:02:45.477Z,15.27
2023-01-23T04:05:14.800Z,15.68
2023-01-23T04:07:41.582Z,15.95
2023-01-23T04:10:10.747Z,16.95
2023-01-23T04:12:39.622Z,15.98
2023-01-23T04:15:08.719Z,15.38
2023-01-23T04:17:41.236Z,14.32
2023-01-23T04:20:09.930Z,14.25
2023-01-23T04:22:36.696Z,15.32
2023-01-23T04:25:03.729Z,13.32
2023-01-23T04:27:31.953Z,13.30
2023-01-23T04:29:59.237Z,11.30
2023-01-23T04:32:26.129Z,10.98
2023-01-23T04:34:53.144Z,9.57
2023-01-23T04:37:19.951Z,9.75
2023-01-23T04:39:46.814Z,8.80
2023-01-23T04:42:14.295Z,9.02
2023-01-23T04:44:50.003Z,9.20
2023-01-23T04:47:19.551Z,7.45
2023-01-23T04:49:48.480Z,6.78
2023-01-23T04:52:16.311Z,6.00
2023-01-23T04:54:52.711Z,7.15
2023-01-23T04:57:19.979Z,6.78
2023-01-23T04:59:48.332Z,6.40
2023-01-23T05:02:16.352Z,5.78
2023-01-23T05:04:44.845Z,6.38
2023-01-23T05:07:12.430Z,6.57
2023-01-23T05:09:44.207Z,5.80
2023-01-23T05:12:14.390Z,6.22
2023-01-23T05:14:41.992Z,5.53
2023-01-23T05:17:08.936Z,5.90
2023-01-23T05:19:40.583Z,5.07
2023-01-23T05:22:09.000Z,5.15
2023-01-23T05:24:35.927Z,4.57
2023-01-23T05:27:03.567Z,4.80
2023-01-23T05:29:31.869Z,5.22
2023-01-23T05:32:02.544Z,5.75
2023-01-23T05:34:42.121Z,6.00
2023-01-23T05:37:38.981Z,6.35
2023-01-23T05:40:08.714Z,6.10
2023-01-23T05:42:54.710Z,6.20
2023-01-23T05:45:42.249Z,6.38
2023-01-23T05:48:15.900Z,6.75
2023-01-23T05:50:42.845Z,6.72
2023-01-23T05:53:09.705Z,6.32
2023-01-23T05:55:40.800Z,6.10
2023-01-23T05:58:10.566Z,6.60
2023-01-23T06:00:56.876Z,6.55
2023-01-23T06:03:47.577Z,6.38
2023-01-23T06:06:31.980Z,6.32
2023-01-23T06:09:00.016Z,5.93
2023-01-23T06:11:29.237Z,5.97
2023-01-23T06:13:56.911Z,6.53
2023-01-23T06:16:23.740Z,6.75
2023-01-23T06:18:51.388Z,5.68
2023-01-23T06:21:18.954Z,5.10
2023-01-23T06:23:46.204Z,5.05
2023-01-23T06:26:13.854Z,5.00
2023-01-23T06:28:40.783Z,5.32
2023-01-23T06:31:10.383Z,4.63
2023-01-23T06:33:51.630Z,5.30
2023-01-23T06:36:22.073Z,5.63
2023-01-23T06:38:49.657Z,6.28
2023-01-23T06:41:19.824Z,5.82
2023-01-23T06:43:51.464Z,6.28
2023-01-23T06:46:22.534Z,6.43
2023-01-23T06:48:49.778Z,6.68
2023-01-23T06:51:16.586Z,7.22
2023-01-23T06:53:45.183Z,8.05
2023-01-23T06:56:12.742Z,8.15
2023-01-23T06:58:39.840Z,7.40
2023-01-23T07:01:18.419Z,7.60
2023-01-23T07:04:04.288Z,7.82
2023-01-23T07:06:32.012Z,7.72
2023-01-23T07:08:59.263Z,8.50
2023-01-23T07:11:26.070Z,8.48
2023-01-23T07:13:56.465Z,9.10
2023-01-23T07:16:24.930Z,9.43
2023-01-23T07:18:52.433Z,9.70
2023-01-23T07:21:19.209Z,10.13
2023-01-23T07:23:45.958Z,9.95
2023-01-23T07:26:12.739Z,11.40
2023-01-23T07:28:39.896Z,10.52
2023-01-23T07:31:07.036Z,11.75
2023-01-23T07:33:34.185Z,12.15
2023-01-23T07:36:01.443Z,12.07
2023-01-23T07:38:28.252Z,12.82
2023-01-23T07:40:58.957Z,11.60
2023-01-23T07:43:26.429Z,12.10
2023-01-23T07:45:53.616Z,11.35
2023-01-23T07:48:20.409Z,11.10
2023-01-23T07:50:47.147Z,12.52
2023-01-23T07:53:16.950Z,11.50
2023-01-23T07:55:44.319Z,12.50
2023-01-23T07:58:11.160Z,12.98
2023-01-23T08:00:39.515Z,12.85
2023-01-23T08:03:06.344Z,13.43
2023-01-23T08:05:33.232Z,14.15
2023-01-23T08:08:12.638Z,14.02
2023-01-23T08:10:40.731Z,12.85
2023-01-23T08:13:08.074Z,14.30
2023-01-23T08:15:36.617Z,14.40
2023-01-23T08:18:03.448Z,14.23
2023-01-23T08:20:30.853Z,14.13
2023-01-23T08:22:59.067Z,13.63
2023-01-23T08:25:26.084Z,14.88
2023-01-23T08:27:52.901Z,14.82
2023-01-23T08:30:20.022Z,14.35
2023-01-23T08:32:47.143Z,13.77
2023-01-23T08:35:14.081Z,13.32
2023-01-23T08:37:42.315Z,15.88
2023-01-23T08:40:10.019Z,16.48
2023-01-23T08:42:37.189Z,19.73
2023-01-23T08:45:04.768Z,13.73
2023-01-23T08:47:36.897Z,14.75
2023-01-23T08:50:05.156Z,15.18
2023-01-23T08:52:32.152Z,14.75
2023-01-23T08:54:58.984Z,15.80
2023-01-23T08:57:25.899Z,15.55
2023-01-23T08:59:52.648Z,15.98
2023-01-23T09:02:19.616Z,14.73
2023-01-23T09:04:46.774Z,15.15
2023-01-23T09:07:13.730Z,15.27
2023-01-23T09:09:40.512Z,14.82
2023-01-23T09:12:08.308Z,13.48
2023-01-23T09:14:35.079Z,14.43
2023-01-23T09:17:02.091Z,14.48
2023-01-23T09:19:31.714Z,15.07
2023-01-23T09:22:01.698Z,13.77
2023-01-23T09:24:28.608Z,13.95
2023-01-23T09:26:55.393Z,13.95
2023-01-23T09:29:22.281Z,12.50
2023-01-23T09:31:49.081Z,12.38
2023-01-23T09:34:17.264Z,13.98
2023-01-23T09:36:44.385Z,11.85
2023-01-23T09:39:12.351Z,12.60
2023-01-23T09:41:41.354Z,11.93
2023-01-23T09:44:29.335Z,11.73
2023-01-23T09:47:02.543Z,12.40
2023-01-23T09:49:42.758Z,13.82
2023-01-23T09:52:16.752Z,12.93
2023-01-23T09:54:46.565Z,12.55
2023-01-23T09:57:18.336Z,12.52
2023-01-23T09:59:59.925Z,11.60
2023-01-23T10:02:28.071Z,12.98
2023-01-23T10:04:56.564Z,12.98
2023-01-23T10:07:45.251Z,10.88
2023-01-23T10:10:30.751Z,12.30
2023-01-23T10:13:11.480Z,12.02
2023-01-23T10:16:09.824Z,12.15
2023-01-23T10:19:01.729Z,13.02
2023-01-23T10:21:28.475Z,11.98
2023-01-23T10:24:16.893Z,11.35
2023-01-23T10:26:46.671Z,11.65
2023-01-23T10:29:35.115Z,11.90
2023-01-23T10:32:05.751Z,10.70
2023-01-23T10:34:44.738Z,11.98
2023-01-23T10:37:38.973Z,12.13
2023-01-23T10:40:15.573Z,10.55
2023-01-23T10:42:43.221Z,11.32
2023-01-23T10:45:19.289Z,11.38
2023-01-23T10:47:54.654Z,10.63
2023-01-23T10:50:37.252Z,10.77
2023-01-23T10:53:15.516Z,10.00
2023-01-23T10:55:45.733Z,11.30
2023-01-23T10:58:39.383Z,11.70
2023-01-23T11:01:23.639Z,11.38
2023-01-23T11:03:50.676Z,12.60
2023-01-23T11:06:20.620Z,11.32
2023-01-23T11:09:00.406Z,10.90
2023-01-23T11:11:29.430Z,11.35
2023-01-23T11:14:16.810Z,10.80
2023-01-23T11:16:44.025Z,11.57
2023-01-23T11:19:18.238Z,11.15
2023-01-23T11:21:56.910Z,11.95
2023-01-23T11:24:39.789Z,11.25
2023-01-23T11:27:20.313Z,11.45
2023-01-23T11:30:08.692Z,11.32
2023-01-23T11:32:54.114Z,11.55
2023-01-23T11:35:44.427Z,11.20
2023-01-23T11:38:18.014Z,11.00
2023-01-23T11:40:48.113Z,12.82
2023-01-23T11:43:16.378Z,11.70
2023-01-23T11:46:01.060Z,12.10
2023-01-23T11:48:59.706Z,12.52
2023-01-23T11:51:51.545Z,12.52
2023-01-23T11:54:33.661Z,13.30
2023-01-23T11:57:28.149Z,13.77
2023-01-23T12:00:24.879Z,13.18
2023-01-23T12:03:03.880Z,13.77
2023-01-23T12:05:33.865Z,14.40
2023-01-23T12:08:23.656Z,15.57
2023-01-23T12:10:53.588Z,14.45
2023-01-23T12:13:41.675Z,15.00
2023-01-23T12:16:20.687Z,14.80
2023-01-23T12:19:10.108Z,14.88
2023-01-23T12:22:02.270Z,14.70
2023-01-23T12:24:41.130Z,16.27
2023-01-23T12:27:44.561Z,14.52
2023-01-23T12:30:22.110Z,14.05
2023-01-23T12:32:51.811Z,16.10
2023-01-23T12:35:46.510Z,14.70
2023-01-23T12:38:35.287Z,14.48
2023-01-23T12:41:13.804Z,15.23
2023-01-23T12:43:50.995Z,15.38
2023-01-23T12:46:32.151Z,14.55
2023-01-23T12:49:28.664Z,14.75
2023-01-23T12:52:27.838Z,14.30
2023-01-23T12:55:03.726Z,16.08
2023-01-23T12:57:59.030Z,13.73
2023-01-23T13:00:46.250Z,15.90
2023-01-23T13:03:29.008Z,14.27
2023-01-23T13:06:00.975Z,14.15
2023-01-23T13:08:58.061Z,14.18
2023-01-23T13:11:42.109Z,15.10
2023-01-23T13:15:00.641Z,14.10
2023-01-23T13:17:58.745Z,15.43
2023-01-23T13:20:48.650Z,14.73
2023-01-23T13:23:29.479Z,14.88
2023-01-23T13:26:12.444Z,13.85
2023-01-23T13:28:46.228Z,15.35
2023-01-23T13:31:46.607Z,16.55
2023-01-23T13:34:16.719Z,14.25
2023-01-23T13:36:54.218Z,15.73
2023-01-23T13:39:29.783Z,14.77
2023-01-23T13:42:15.057Z,15.05
2023-01-23T13:45:16.018Z,15.68
2023-01-23T14:22:56.068Z,16.58
2023-01-23T14:25:23.360Z,17.15
2023-01-23T14:28:03.606Z,18.55
2023-01-23T14:30:31.645Z,17.77
2023-01-23T14:33:01.662Z,18.17
2023-01-23T14:35:33.178Z,16.63
2023-01-23T14:38:03.252Z,17.85
2023-01-23T14:40:40.080Z,16.13
2023-01-23T14:43:20.407Z,16.30
2023-01-23T14:45:49.740Z,17.75
2023-01-23T14:48:18.078Z,16.60
2023-01-23T14:50:45.046Z,17.73
2023-01-23T14:53:17.057Z,18.15
2023-01-23T14:55:50.654Z,16.67
2023-01-23T14:58:24.985Z,16.70
2023-01-23T15:00:53.793Z,17.98
2023-01-23T15:03:44.434Z,17.63
2023-01-23T15:06:20.095Z,17.63
2023-01-23T15:08:47.282Z,18.42
2023-01-23T15:11:14.907Z,17.30
2023-01-23T15:13:50.254Z,18.45
2023-01-23T15:16:20.262Z,17.17
2023-01-23T15:18:53.400Z,17.55
2023-01-23T15:21:30.557Z,18.17
2023-01-23T15:24:25.437Z,16.55
2023-01-23T15:27:03.577Z,17.40
2023-01-23T15:29:30.969Z,18.13
2023-01-23T15:31:58.767Z,17.83
2023-01-23T15:34:34.015Z,17.75
2023-01-23T15:37:20.087Z,19.25
2023-01-23T15:40:02.466Z,18.58
2023-01-23T15:42:31.973Z,18.27
2023-01-23T15:45:01.436Z,16.83
2023-01-23T15:47:32.454Z,17.42
2023-01-23T15:50:02.990Z,18.05
2023-01-23T15:52:44.818Z,18.23
2023-01-23T15:55:11.971Z,18.08
2023-01-23T15:57:38.865Z,18.15
2023-01-23T16:00:16.396Z,17.65
2023-01-23T16:02:55.155Z,18.30
2023-01-23T16:05:32.180Z,19.35
2023-01-23T16:08:02.549Z,18.83
2023-01-23T16:10:36.353Z,17.73
2023-01-23T16:13:04.109Z,17.35
2023-01-23T16:15:33.459Z,19.48
2023-01-23T16:18:02.940Z,19.23
2023-01-23T16:20:38.425Z,17.63
2023-01-23T16:23:15.141Z,18.83
2023-01-23T16:25:45.654Z,19.23
2023-01-23T16:28:19.297Z,19.40
2023-01-23T16:30:47.113Z,19.52
2023-01-23T16:33:13.978Z,18.40
2023-01-23T16:35:41.494Z,19.42
2023-01-23T16:38:24.962Z,20.58
2023-01-23T16:40:53.307Z,19.40
2023-01-23T16:43:21.650Z,18.88
2023-01-23T16:45:48.453Z,19.23
2023-01-23T16:48:25.405Z,19.63
2023-01-23T16:50:57.470Z,20.85
2023-01-23T16:53:35.981Z,20.70
2023-01-23T16:56:04.283Z,20.88
2023-01-23T16:58:41.166Z,19.90
2023-01-23T17:01:16.125Z,20.88
2023-01-23T17:03:44.326Z,20.80
2023-01-23T17:06:16.113Z,20.52
2023-01-23T17:08:42.989Z,20.90
2023-01-23T17:11:18.587Z,21.38
2023-01-23T17:13:45.618Z,19.60
2023-01-23T17:16:25.667Z,19.70
2023-01-23T17:18:54.854Z,20.55
2023-01-23T17:21:25.021Z,20.67
2023-01-23T17:23:52.200Z,20.10
2023-01-23T17:26:20.826Z,20.52
2023-01-23T17:28:47.781Z,19.80
2023-01-23T17:31:20.629Z,19.20
2023-01-23T17:33:47.987Z,20.63
2023-01-23T17:36:15.274Z,21.67
2023-01-23T17:38:42.265Z,21.08
2023-01-23T17:41:16.813Z,21.25
2023-01-23T17:43:44.741Z,29.77
2023-01-23T17:46:21.497Z,23.73
2023-01-23T17:48:48.786Z,22.73
2023-01-23T17:51:18.211Z,24.85
2023-01-23T17:53:45.351Z,25.83
2023-01-23T17:56:12.497Z,24.40
2023-01-23T17:58:39.606Z,33.58
2023-01-23T18:01:19.136Z,29.13
2023-01-23T18:03:46.497Z,26.02
2023-01-23T18:06:13.308Z,23.15
2023-01-23T18:08:42.294Z,23.02
2023-01-23T18:11:21.202Z,21.73
2023-01-23T18:14:11.656Z,21.77
2023-01-23T18:16:45.343Z,23.08
2023-01-23T18:19:19.767Z,22.85
2023-01-23T18:21:49.127Z,22.67
2023-01-23T18:24:27.457Z,23.88
2023-01-23T18:27:06.449Z,21.85
2023-01-23T18:29:57.410Z,24.15
2023-01-23T18:32:33.017Z,23.42
2023-01-23T18:35:38.714Z,21.33
2023-01-23T18:38:24.336Z,23.58
2023-01-23T18:41:25.585Z,21.55
2023-01-23T18:44:06.392Z,21.75
2023-01-23T18:46:33.983Z,23.38
2023-01-23T18:49:01.587Z,30.15
2023-01-23T18:51:54.223Z,25.48
2023-01-23T18:55:02.564Z,23.50
2023-01-23T18:57:43.206Z,23.63
2023-01-23T19:00:28.214Z,24.38
2023-01-23T19:03:16.523Z,23.80
2023-01-23T19:05:44.464Z,22.58
2023-01-23T19:08:30.707Z,22.95
2023-01-23T19:11:05.711Z,24.17
2023-01-23T19:13:43.701Z,23.60
2023-01-23T19:16:17.341Z,25.63
2023-01-23T19:19:14.690Z,23.70
2023-01-23T19:21:43.084Z,24.63
2023-01-23T19:24:11.143Z,24.05
2023-01-23T19:26:40.501Z,23.02
2023-01-23T19:29:25.805Z,22.98
2023-01-23T19:32:04.565Z,24.45
2023-01-23T19:34:33.556Z,22.48
2023-01-23T19:37:00.325Z,23.83
2023-01-23T19:39:27.332Z,22.92
2023-01-23T19:41:54.455Z,23.52
2023-01-23T19:44:24.898Z,25.40
2023-01-23T19:46:52.390Z,29.00
2023-01-23T19:49:20.267Z,27.17
2023-01-23T19:51:49.622Z,24.45
2023-01-23T19:54:16.524Z,24.60
2023-01-23T19:56:43.498Z,24.80
2023-01-23T19:59:10.608Z,24.30
2023-01-23T20:01:49.561Z,25.83
2023-01-23T20:04:19.989Z,25.25
2023-01-23T20:06:48.989Z,24.15
2023-01-23T20:09:16.450Z,25.25
2023-01-23T20:11:44.422Z,25.65
2023-01-23T20:14:11.589Z,23.63
2023-01-23T20:16:40.914Z,25.05
2023-01-23T20:19:07.929Z,24.65
2023-01-23T20:21:34.756Z,24.17
2023-01-23T20:24:02.206Z,25.35
2023-01-23T20:26:29.024Z,25.65
2023-01-23T20:28:58.954Z,27.45
2023-01-23T20:31:26.188Z,24.60
2023-01-23T20:33:53.703Z,25.65
2023-01-23T20:36:20.631Z,27.75
2023-01-23T20:38:48.036Z,26.17
2023-01-23T20:41:18.611Z,23.98
2023-01-23T20:43:46.573Z,24.38
2023-01-23T20:46:14.425Z,24.92
2023-01-23T20:48:44.321Z,25.55
2023-01-23T20:51:12.887Z,26.08
2023-01-23T20:53:40.734Z,26.20
2023-01-23T20:56:10.233Z,26.63
2023-01-23T20:58:58.520Z,26.38
2023-01-23T21:01:28.141Z,25.40
2023-01-23T21:03:55.114Z,27.63
2023-01-23T21:06:22.371Z,25.83
2023-01-23T21:08:49.200Z,27.65
2023-01-23T21:11:18.691Z,25.67
2023-01-23T21:13:51.065Z,26.98
2023-01-23T21:16:18.050Z,26.90
2023-01-23T21:18:46.850Z,26.88
2023-01-23T21:21:16.012Z,26.42
2023-01-23T21:23:45.672Z,26.50
2023-01-23T21:26:12.982Z,26.92
2023-01-23T21:28:39.767Z,26.60
2023-01-23T21:31:34.601Z,27.90
2023-01-23T21:34:03.892Z,27.83
2023-01-23T21:36:31.194Z,26.83
2023-01-23T21:38:58.599Z,29.17
2023-01-23T21:41:25.397Z,27.15
2023-01-23T21:43:52.171Z,26.15
2023-01-23T21:46:21.194Z,27.50
2023-01-23T21:48:48.059Z,26.40
2023-01-23T21:51:20.790Z,28.25
2023-01-23T21:53:50.088Z,29.40
2023-01-23T21:56:19.619Z,29.92
2023-01-23T21:58:49.522Z,28.73
2023-01-23T22:01:38.074Z,30.20
2023-01-23T22:04:06.165Z,28.77
2023-01-23T22:06:37.469Z,30.23
2023-01-23T22:09:05.130Z,29.88
2023-01-23T22:11:32.422Z,29.38
2023-01-23T22:14:00.033Z,29.33
2023-01-23T22:16:46.508Z,31.30
2023-01-23T22:19:15.816Z,32.83
2023-01-23T22:21:43.756Z,32.13
2023-01-23T22:24:11.126Z,33.88
2023-01-23T22:26:38.399Z,31.00
2023-01-23T22:29:05.281Z,32.15
2023-01-23T22:31:32.132Z,32.30
2023-01-23T22:33:59.092Z,29.77
2023-01-23T22:36:26.059Z,30.65
2023-01-23T22:38:54.461Z,31.83
2023-01-23T22:41:21.961Z,31.55
2023-01-23T22:43:59.423Z,30.20
2023-01-23T22:46:26.785Z,29.33
2023-01-23T22:48:53.911Z,29.98
2023-01-23T22:51:24.529Z,31.60
2023-01-23T22:53:53.217Z,30.95
2023-01-23T22:56:20.558Z,30.35
2023-01-23T22:58:48.524Z,29.10
2023-01-23T23:01:15.887Z,28.20
2023-01-23T23:03:46.375Z,30.63
2023-01-23T23:06:15.961Z,30.17
2023-01-23T23:08:47.121Z,30.02
2023-01-23T23:11:19.916Z,30.52
2023-01-23T23:13:47.025Z,28.45
2023-01-23T23:16:20.668Z,29.42
2023-01-23T23:18:49.470Z,31.40
2023-01-23T23:21:19.251Z,31.73
2023-01-23T23:23:46.952Z,30.38
2023-01-23T23:26:14.016Z,29.17
2023-01-23T23:28:41.344Z,29.67
2023-01-23T23:31:09.920Z,29.50
2023-01-23T23:33:37.283Z,28.67
2023-01-23T23:36:04.560Z,30.10
2023-01-23T23:38:31.477Z,29.52
2023-01-23T23:41:00.737Z,28.33
2023-01-23T23:43:28.623Z,29.73
2023-01-23T23:45:57.948Z,28.98
2023-01-23T23:48:25.749Z,28.88
2023-01-23T23:50:53.243Z,27.75
2023-01-23T23:53:20.710Z,28.05
2023-01-23T23:55:48.082Z,27.70
2023-01-23T23:58:15.341Z,30.15
